sensor_id;sensor_type;location;lat;lon;timestamp;P1;durP1;ratioP1;P2;durP2;ratioP2
20653;SDS011;21083;50.898;4.902;2022-09-27T00:01:09;7.80;;;1.48;;
20653;SDS011;21083;50.898;4.902;2022-09-27T00:03:38;9.35;;;1.65;;
20653;SDS011;21083;50.898;4.902;2022-09-27T00:06:07;6.43;;;1.33;;
20653;SDS011;21083;50.898;4.902;2022-09-27T00:08:38;8.30;;;1.13;;
20653;SDS011;21083;50.898;4.902;2022-09-27T00:11:05;10.88;;;1.52;;
20653;SDS011;21083;50.898;4.902;2022-09-27T00:13:35;6.53;;;1.25;;
20653;SDS011;21083;50.898;4.902;2022-09-27T00:16:02;5.75;;;1.63;;
20653;SDS011;21083;50.898;4.902;2022-09-27T00:18:30;11.10;;;1.30;;
20653;SDS011;21083;50.898;4.902;2022-09-27T00:21:03;6.47;;;1.17;;
20653;SDS011;21083;50.898;4.902;2022-09-27T00:23:32;9.45;;;1.10;;
20653;SDS011;21083;50.898;4.902;2022-09-27T00:25:59;3.85;;;1.15;;
20653;SDS011;21083;50.898;4.902;2022-09-27T00:28:27;6.32;;;1.08;;
20653;SDS011;21083;50.898;4.902;2022-09-27T00:30:55;6.00;;;1.23;;
20653;SDS011;21083;50.898;4.902;2022-09-27T00:33:22;7.70;;;1.20;;
20653;SDS011;21083;50.898;4.902;2022-09-27T00:35:49;5.85;;;0.98;;
20653;SDS011;21083;50.898;4.902;2022-09-27T00:38:15;4.78;;;0.75;;
20653;SDS011;21083;50.898;4.902;2022-09-27T00:40:44;7.45;;;1.27;;
20653;SDS011;21083;50.898;4.902;2022-09-27T00:43:15;4.13;;;0.93;;
20653;SDS011;21083;50.898;4.902;2022-09-27T00:45:44;7.70;;;1.13;;
20653;SDS011;21083;50.898;4.902;2022-09-27T00:48:16;9.25;;;1.30;;
20653;SDS011;21083;50.898;4.902;2022-09-27T00:50:47;9.07;;;1.33;;
20653;SDS011;21083;50.898;4.902;2022-09-27T00:53:17;3.40;;;0.80;;
20653;SDS011;21083;50.898;4.902;2022-09-27T00:55:51;4.47;;;1.00;;
20653;SDS011;21083;50.898;4.902;2022-09-27T00:58:20;10.18;;;1.70;;
20653;SDS011;21083;50.898;4.902;2022-09-27T01:00:50;6.25;;;1.25;;
20653;SDS011;21083;50.898;4.902;2022-09-27T01:03:21;7.10;;;1.10;;
20653;SDS011;21083;50.898;4.902;2022-09-27T01:05:53;6.47;;;0.90;;
20653;SDS011;21083;50.898;4.902;2022-09-27T01:08:21;6.28;;;0.98;;
20653;SDS011;21083;50.898;4.902;2022-09-27T01:10:52;6.13;;;1.02;;
20653;SDS011;21083;50.898;4.902;2022-09-27T01:13:29;9.68;;;1.13;;
20653;SDS011;21083;50.898;4.902;2022-09-27T01:16:04;8.20;;;1.40;;
20653;SDS011;21083;50.898;4.902;2022-09-27T01:18:37;10.13;;;1.70;;
20653;SDS011;21083;50.898;4.902;2022-09-27T01:24:13;7.13;;;2.03;;
20653;SDS011;21083;50.898;4.902;2022-09-27T01:27:19;7.57;;;1.60;;
20653;SDS011;21083;50.898;4.902;2022-09-27T01:35:45;5.45;;;1.35;;
20653;SDS011;21083;50.898;4.902;2022-09-27T01:38:20;6.82;;;1.90;;
20653;SDS011;21083;50.898;4.902;2022-09-27T01:40:51;3.80;;;1.40;;
20653;SDS011;21083;50.898;4.902;2022-09-27T01:43:25;10.32;;;1.60;;
20653;SDS011;21083;50.898;4.902;2022-09-27T01:46:00;7.45;;;1.73;;
20653;SDS011;21083;50.898;4.902;2022-09-27T01:48:31;5.55;;;1.50;;
20653;SDS011;21083;50.898;4.902;2022-09-27T01:51:03;8.70;;;1.55;;
20653;SDS011;21083;50.898;4.902;2022-09-27T01:53:33;4.30;;;1.52;;
20653;SDS011;21083;50.898;4.902;2022-09-27T01:56:05;7.25;;;1.30;;
20653;SDS011;21083;50.898;4.902;2022-09-27T01:58:36;9.43;;;1.10;;
20653;SDS011;21083;50.898;4.902;2022-09-27T02:01:09;7.82;;;0.93;;
20653;SDS011;21083;50.898;4.902;2022-09-27T02:03:39;6.28;;;0.80;;
20653;SDS011;21083;50.898;4.902;2022-09-27T02:06:09;3.25;;;0.77;;
20653;SDS011;21083;50.898;4.902;2022-09-27T02:08:42;7.72;;;0.93;;
20653;SDS011;21083;50.898;4.902;2022-09-27T02:11:13;3.15;;;0.68;;
20653;SDS011;21083;50.898;4.902;2022-09-27T02:13:43;10.50;;;1.33;;
20653;SDS011;21083;50.898;4.902;2022-09-27T02:16:18;10.15;;;1.15;;
20653;SDS011;21083;50.898;4.902;2022-09-27T02:18:53;4.25;;;0.80;;
20653;SDS011;21083;50.898;4.902;2022-09-27T02:21:30;2.67;;;0.68;;
20653;SDS011;21083;50.898;4.902;2022-09-27T02:24:02;4.93;;;0.65;;
20653;SDS011;21083;50.898;4.902;2022-09-27T02:26:32;2.00;;;0.70;;
20653;SDS011;21083;50.898;4.902;2022-09-27T02:29:06;4.97;;;0.57;;
20653;SDS011;21083;50.898;4.902;2022-09-27T02:31:37;2.40;;;0.63;;
20653;SDS011;21083;50.898;4.902;2022-09-27T02:34:06;8.07;;;0.93;;
20653;SDS011;21083;50.898;4.902;2022-09-27T02:36:38;3.03;;;0.50;;
20653;SDS011;21083;50.898;4.902;2022-09-27T02:39:05;1.75;;;0.30;;
20653;SDS011;21083;50.898;4.902;2022-09-27T02:41:32;3.78;;;0.60;;
20653;SDS011;21083;50.898;4.902;2022-09-27T02:44:01;4.25;;;0.68;;
20653;SDS011;21083;50.898;4.902;2022-09-27T02:46:44;4.35;;;0.63;;
20653;SDS011;21083;50.898;4.902;2022-09-27T02:49:33;4.85;;;0.55;;
20653;SDS011;21083;50.898;4.902;2022-09-27T02:52:13;3.63;;;0.57;;
20653;SDS011;21083;50.898;4.902;2022-09-27T02:54:47;4.30;;;0.40;;
20653;SDS011;21083;50.898;4.902;2022-09-27T02:57:25;3.55;;;0.57;;
20653;SDS011;21083;50.898;4.902;2022-09-27T02:59:59;4.47;;;0.80;;
20653;SDS011;21083;50.898;4.902;2022-09-27T03:02:34;3.20;;;0.70;;
20653;SDS011;21083;50.898;4.902;2022-09-27T03:05:11;3.55;;;0.60;;
20653;SDS011;21083;50.898;4.902;2022-09-27T03:07:42;3.33;;;0.60;;
20653;SDS011;21083;50.898;4.902;2022-09-27T03:10:14;8.18;;;0.80;;
20653;SDS011;21083;50.898;4.902;2022-09-27T03:12:42;4.57;;;0.98;;
20653;SDS011;21083;50.898;4.902;2022-09-27T03:15:09;1.88;;;0.70;;
20653;SDS011;21083;50.898;4.902;2022-09-27T03:17:37;5.38;;;0.70;;
20653;SDS011;21083;50.898;4.902;2022-09-27T03:20:04;9.43;;;1.13;;
20653;SDS011;21083;50.898;4.902;2022-09-27T03:22:33;3.15;;;0.70;;
20653;SDS011;21083;50.898;4.902;2022-09-27T03:25:02;4.03;;;0.80;;
20653;SDS011;21083;50.898;4.902;2022-09-27T03:27:31;3.45;;;0.73;;
20653;SDS011;21083;50.898;4.902;2022-09-27T03:29:58;3.30;;;0.52;;
20653;SDS011;21083;50.898;4.902;2022-09-27T03:32:25;3.08;;;0.68;;
20653;SDS011;21083;50.898;4.902;2022-09-27T03:34:54;5.20;;;0.63;;
20653;SDS011;21083;50.898;4.902;2022-09-27T03:37:21;2.50;;;0.55;;
20653;SDS011;21083;50.898;4.902;2022-09-27T03:39:48;3.78;;;0.68;;
20653;SDS011;21083;50.898;4.902;2022-09-27T03:42:15;2.03;;;0.80;;
20653;SDS011;21083;50.898;4.902;2022-09-27T03:44:42;5.72;;;1.02;;
20653;SDS011;21083;50.898;4.902;2022-09-27T03:47:09;4.95;;;0.70;;
20653;SDS011;21083;50.898;4.902;2022-09-27T03:49:36;2.97;;;0.50;;
20653;SDS011;21083;50.898;4.902;2022-09-27T03:52:04;5.22;;;0.50;;
20653;SDS011;21083;50.898;4.902;2022-09-27T03:54:31;8.55;;;1.02;;
20653;SDS011;21083;50.898;4.902;2022-09-27T03:56:58;7.55;;;0.80;;
20653;SDS011;21083;50.898;4.902;2022-09-27T03:59:24;2.38;;;0.73;;
20653;SDS011;21083;50.898;4.902;2022-09-27T04:01:51;4.38;;;0.77;;
20653;SDS011;21083;50.898;4.902;2022-09-27T04:04:18;4.68;;;1.00;;
20653;SDS011;21083;50.898;4.902;2022-09-27T04:06:45;4.13;;;0.95;;
20653;SDS011;21083;50.898;4.902;2022-09-27T04:09:14;5.78;;;0.82;;
20653;SDS011;21083;50.898;4.902;2022-09-27T04:11:41;7.00;;;0.75;;
20653;SDS011;21083;50.898;4.902;2022-09-27T04:14:08;2.70;;;0.60;;
20653;SDS011;21083;50.898;4.902;2022-09-27T04:16:36;2.97;;;0.65;;
20653;SDS011;21083;50.898;4.902;2022-09-27T04:19:04;3.17;;;0.90;;
20653;SDS011;21083;50.898;4.902;2022-09-27T04:21:31;3.97;;;0.65;;
20653;SDS011;21083;50.898;4.902;2022-09-27T04:23:58;1.88;;;0.63;;
20653;SDS011;21083;50.898;4.902;2022-09-27T04:26:26;1.95;;;0.50;;
20653;SDS011;21083;50.898;4.902;2022-09-27T04:28:53;8.10;;;0.82;;
20653;SDS011;21083;50.898;4.902;2022-09-27T04:31:21;4.00;;;0.70;;
20653;SDS011;21083;50.898;4.902;2022-09-27T04:33:48;2.78;;;0.70;;
20653;SDS011;21083;50.898;4.902;2022-09-27T04:36:16;5.25;;;0.75;;
20653;SDS011;21083;50.898;4.902;2022-09-27T04:38:53;4.63;;;0.77;;
20653;SDS011;21083;50.898;4.902;2022-09-27T04:41:21;6.00;;;0.80;;
20653;SDS011;21083;50.898;4.902;2022-09-27T04:43:50;2.05;;;0.63;;
20653;SDS011;21083;50.898;4.902;2022-09-27T04:46:18;4.75;;;0.73;;
20653;SDS011;21083;50.898;4.902;2022-09-27T04:48:45;3.15;;;0.60;;
20653;SDS011;21083;50.898;4.902;2022-09-27T04:51:12;5.07;;;0.80;;
20653;SDS011;21083;50.898;4.902;2022-09-27T04:53:41;7.13;;;0.80;;
20653;SDS011;21083;50.898;4.902;2022-09-27T04:56:08;2.13;;;0.82;;
20653;SDS011;21083;50.898;4.902;2022-09-27T04:58:35;6.82;;;0.82;;
20653;SDS011;21083;50.898;4.902;2022-09-27T05:01:04;4.28;;;1.33;;
20653;SDS011;21083;50.898;4.902;2022-09-27T05:03:31;3.65;;;1.30;;
20653;SDS011;21083;50.898;4.902;2022-09-27T05:05:58;6.40;;;1.23;;
20653;SDS011;21083;50.898;4.902;2022-09-27T05:08:25;2.10;;;0.90;;
20653;SDS011;21083;50.898;4.902;2022-09-27T05:10:52;5.15;;;0.90;;
20653;SDS011;21083;50.898;4.902;2022-09-27T05:13:20;5.03;;;0.95;;
20653;SDS011;21083;50.898;4.902;2022-09-27T05:15:47;2.17;;;0.93;;
20653;SDS011;21083;50.898;4.902;2022-09-27T05:18:15;5.20;;;1.27;;
20653;SDS011;21083;50.898;4.902;2022-09-27T05:20:43;5.65;;;0.98;;
20653;SDS011;21083;50.898;4.902;2022-09-27T05:23:10;5.60;;;1.33;;
20653;SDS011;21083;50.898;4.902;2022-09-27T05:25:37;7.05;;;1.35;;
20653;SDS011;21083;50.898;4.902;2022-09-27T05:28:04;5.05;;;1.30;;
20653;SDS011;21083;50.898;4.902;2022-09-27T05:30:30;4.18;;;1.20;;
20653;SDS011;21083;50.898;4.902;2022-09-27T05:32:57;7.53;;;1.52;;
20653;SDS011;21083;50.898;4.902;2022-09-27T05:35:26;4.93;;;1.40;;
20653;SDS011;21083;50.898;4.902;2022-09-27T05:37:53;7.80;;;1.80;;
20653;SDS011;21083;50.898;4.902;2022-09-27T05:40:21;4.22;;;1.67;;
20653;SDS011;21083;50.898;4.902;2022-09-27T05:42:50;6.97;;;1.10;;
20653;SDS011;21083;50.898;4.902;2022-09-27T05:45:17;8.77;;;2.30;;
20653;SDS011;21083;50.898;4.902;2022-09-27T05:47:51;3.58;;;1.17;;
20653;SDS011;21083;50.898;4.902;2022-09-27T05:50:19;7.32;;;1.70;;
20653;SDS011;21083;50.898;4.902;2022-09-27T05:52:47;5.85;;;1.33;;
20653;SDS011;21083;50.898;4.902;2022-09-27T05:55:14;5.05;;;1.58;;
20653;SDS011;21083;50.898;4.902;2022-09-27T05:57:41;6.30;;;1.42;;
20653;SDS011;21083;50.898;4.902;2022-09-27T06:00:08;5.82;;;1.40;;
20653;SDS011;21083;50.898;4.902;2022-09-27T06:02:36;6.20;;;1.73;;
20653;SDS011;21083;50.898;4.902;2022-09-27T06:05:03;8.63;;;2.17;;
20653;SDS011;21083;50.898;4.902;2022-09-27T06:07:31;7.75;;;2.20;;
20653;SDS011;21083;50.898;4.902;2022-09-27T06:09:59;8.40;;;2.30;;
20653;SDS011;21083;50.898;4.902;2022-09-27T06:12:26;6.82;;;1.88;;
20653;SDS011;21083;50.898;4.902;2022-09-27T06:14:53;8.60;;;2.03;;
20653;SDS011;21083;50.898;4.902;2022-09-27T06:17:20;4.88;;;1.60;;
20653;SDS011;21083;50.898;4.902;2022-09-27T06:19:46;6.03;;;2.42;;
20653;SDS011;21083;50.898;4.902;2022-09-27T06:22:13;7.35;;;2.22;;
20653;SDS011;21083;50.898;4.902;2022-09-27T06:24:40;8.45;;;2.47;;
20653;SDS011;21083;50.898;4.902;2022-09-27T06:27:08;7.05;;;2.42;;
20653;SDS011;21083;50.898;4.902;2022-09-27T06:29:35;9.25;;;2.75;;
20653;SDS011;21083;50.898;4.902;2022-09-27T06:32:02;8.68;;;2.58;;
20653;SDS011;21083;50.898;4.902;2022-09-27T06:34:29;6.10;;;2.67;;
20653;SDS011;21083;50.898;4.902;2022-09-27T06:36:56;7.63;;;2.70;;
20653;SDS011;21083;50.898;4.902;2022-09-27T06:39:23;10.18;;;3.00;;
20653;SDS011;21083;50.898;4.902;2022-09-27T06:41:52;6.82;;;2.60;;
20653;SDS011;21083;50.898;4.902;2022-09-27T06:44:23;9.27;;;3.13;;
20653;SDS011;21083;50.898;4.902;2022-09-27T06:46:50;10.20;;;3.08;;
20653;SDS011;21083;50.898;4.902;2022-09-27T06:49:20;5.15;;;2.38;;
20653;SDS011;21083;50.898;4.902;2022-09-27T06:51:47;7.45;;;2.95;;
20653;SDS011;21083;50.898;4.902;2022-09-27T06:54:14;8.40;;;2.90;;
20653;SDS011;21083;50.898;4.902;2022-09-27T06:56:41;7.38;;;2.80;;
20653;SDS011;21083;50.898;4.902;2022-09-27T06:59:08;8.00;;;2.63;;
20653;SDS011;21083;50.898;4.902;2022-09-27T07:02:05;8.55;;;2.97;;
20653;SDS011;21083;50.898;4.902;2022-09-27T07:04:32;7.35;;;2.42;;
20653;SDS011;21083;50.898;4.902;2022-09-27T07:06:59;6.72;;;2.50;;
20653;SDS011;21083;50.898;4.902;2022-09-27T07:09:26;6.53;;;2.33;;
20653;SDS011;21083;50.898;4.902;2022-09-27T07:11:53;11.77;;;2.63;;
20653;SDS011;21083;50.898;4.902;2022-09-27T07:14:19;5.25;;;2.53;;
20653;SDS011;21083;50.898;4.902;2022-09-27T07:16:46;5.75;;;2.65;;
20653;SDS011;21083;50.898;4.902;2022-09-27T07:19:15;10.65;;;2.55;;
20653;SDS011;21083;50.898;4.902;2022-09-27T07:21:42;8.38;;;2.50;;
20653;SDS011;21083;50.898;4.902;2022-09-27T07:24:10;6.40;;;2.28;;
20653;SDS011;21083;50.898;4.902;2022-09-27T07:26:37;10.10;;;2.58;;
20653;SDS011;21083;50.898;4.902;2022-09-27T07:29:03;7.18;;;2.35;;
20653;SDS011;21083;50.898;4.902;2022-09-27T07:31:31;8.50;;;2.63;;
20653;SDS011;21083;50.898;4.902;2022-09-27T07:33:58;9.30;;;2.58;;
20653;SDS011;21083;50.898;4.902;2022-09-27T07:36:26;6.53;;;2.53;;
20653;SDS011;21083;50.898;4.902;2022-09-27T07:38:54;6.30;;;2.53;;
20653;SDS011;21083;50.898;4.902;2022-09-27T07:41:21;7.00;;;2.75;;
20653;SDS011;21083;50.898;4.902;2022-09-27T07:43:48;7.45;;;2.60;;
20653;SDS011;21083;50.898;4.902;2022-09-27T07:46:14;6.95;;;2.70;;
20653;SDS011;21083;50.898;4.902;2022-09-27T07:48:41;6.32;;;2.70;;
20653;SDS011;21083;50.898;4.902;2022-09-27T07:51:09;8.48;;;2.90;;
20653;SDS011;21083;50.898;4.902;2022-09-27T07:53:37;8.48;;;3.15;;
20653;SDS011;21083;50.898;4.902;2022-09-27T07:56:05;7.20;;;2.85;;
20653;SDS011;21083;50.898;4.902;2022-09-27T07:58:32;12.23;;;4.00;;
20653;SDS011;21083;50.898;4.902;2022-09-27T08:00:59;8.70;;;3.20;;
20653;SDS011;21083;50.898;4.902;2022-09-27T08:03:27;8.20;;;3.05;;
20653;SDS011;21083;50.898;4.902;2022-09-27T08:05:54;11.40;;;3.88;;
20653;SDS011;21083;50.898;4.902;2022-09-27T08:08:20;9.30;;;3.50;;
20653;SDS011;21083;50.898;4.902;2022-09-27T08:10:49;10.60;;;3.85;;
20653;SDS011;21083;50.898;4.902;2022-09-27T08:13:16;14.27;;;3.58;;
20653;SDS011;21083;50.898;4.902;2022-09-27T08:15:44;13.32;;;3.47;;
20653;SDS011;21083;50.898;4.902;2022-09-27T08:18:11;11.48;;;3.58;;
20653;SDS011;21083;50.898;4.902;2022-09-27T08:20:38;8.32;;;4.13;;
20653;SDS011;21083;50.898;4.902;2022-09-27T08:23:05;11.48;;;3.22;;
20653;SDS011;21083;50.898;4.902;2022-09-27T08:25:32;12.23;;;3.70;;
20653;SDS011;21083;50.898;4.902;2022-09-27T08:28:01;7.85;;;3.60;;
20653;SDS011;21083;50.898;4.902;2022-09-27T08:30:29;7.50;;;3.20;;
20653;SDS011;21083;50.898;4.902;2022-09-27T08:32:57;8.23;;;3.17;;
20653;SDS011;21083;50.898;4.902;2022-09-27T08:35:26;9.40;;;2.97;;
20653;SDS011;21083;50.898;4.902;2022-09-27T08:37:55;8.52;;;3.35;;
20653;SDS011;21083;50.898;4.902;2022-09-27T08:40:24;9.10;;;3.15;;
20653;SDS011;21083;50.898;4.902;2022-09-27T08:43:02;9.75;;;3.15;;
20653;SDS011;21083;50.898;4.902;2022-09-27T08:45:37;8.57;;;3.33;;
20653;SDS011;21083;50.898;4.902;2022-09-27T08:48:07;6.88;;;2.40;;
20653;SDS011;21083;50.898;4.902;2022-09-27T08:50:36;8.13;;;3.25;;
20653;SDS011;21083;50.898;4.902;2022-09-27T08:53:13;6.53;;;2.80;;
20653;SDS011;21083;50.898;4.902;2022-09-27T08:55:46;9.50;;;2.90;;
20653;SDS011;21083;50.898;4.902;2022-09-27T08:58:18;7.40;;;2.42;;
20653;SDS011;21083;50.898;4.902;2022-09-27T09:00:48;6.75;;;2.35;;
20653;SDS011;21083;50.898;4.902;2022-09-27T09:03:18;7.03;;;2.20;;
20653;SDS011;21083;50.898;4.902;2022-09-27T09:05:50;8.07;;;2.30;;
20653;SDS011;21083;50.898;4.902;2022-09-27T09:08:29;6.28;;;2.35;;
20653;SDS011;21083;50.898;4.902;2022-09-27T09:11:02;7.25;;;2.38;;
20653;SDS011;21083;50.898;4.902;2022-09-27T09:14:07;4.80;;;1.98;;
20653;SDS011;21083;50.898;4.902;2022-09-27T09:16:51;5.70;;;2.10;;
20653;SDS011;21083;50.898;4.902;2022-09-27T09:19:32;5.50;;;1.77;;
20653;SDS011;21083;50.898;4.902;2022-09-27T09:22:13;5.65;;;1.80;;
20653;SDS011;21083;50.898;4.902;2022-09-27T09:24:53;5.60;;;1.80;;
20653;SDS011;21083;50.898;4.902;2022-09-27T09:27:30;4.68;;;1.48;;
20653;SDS011;21083;50.898;4.902;2022-09-27T09:30:10;4.20;;;1.60;;
20653;SDS011;21083;50.898;4.902;2022-09-27T09:32:47;5.03;;;1.50;;
20653;SDS011;21083;50.898;4.902;2022-09-27T09:35:25;5.05;;;1.60;;
20653;SDS011;21083;50.898;4.902;2022-09-27T09:37:56;8.00;;;1.95;;
20653;SDS011;21083;50.898;4.902;2022-09-27T09:40:27;4.97;;;1.85;;
20653;SDS011;21083;50.898;4.902;2022-09-27T09:43:00;4.65;;;1.67;;
20653;SDS011;21083;50.898;4.902;2022-09-27T09:45:31;4.97;;;2.30;;
20653;SDS011;21083;50.898;4.902;2022-09-27T09:48:02;5.07;;;1.75;;
20653;SDS011;21083;50.898;4.902;2022-09-27T09:50:37;7.07;;;2.13;;
20653;SDS011;21083;50.898;4.902;2022-09-27T09:53:10;8.27;;;1.75;;
20653;SDS011;21083;50.898;4.902;2022-09-27T09:55:40;10.63;;;2.08;;
20653;SDS011;21083;50.898;4.902;2022-09-27T09:58:17;5.25;;;1.48;;
20653;SDS011;21083;50.898;4.902;2022-09-27T10:00:49;4.03;;;1.60;;
20653;SDS011;21083;50.898;4.902;2022-09-27T10:03:19;6.55;;;1.42;;
20653;SDS011;21083;50.898;4.902;2022-09-27T10:05:46;4.47;;;1.20;;
20653;SDS011;21083;50.898;4.902;2022-09-27T10:08:15;4.95;;;1.52;;
20653;SDS011;21083;50.898;4.902;2022-09-27T10:10:45;7.60;;;1.88;;
20653;SDS011;21083;50.898;4.902;2022-09-27T10:13:12;4.20;;;1.23;;
20653;SDS011;21083;50.898;4.902;2022-09-27T10:15:42;5.28;;;1.30;;
20653;SDS011;21083;50.898;4.902;2022-09-27T10:18:14;5.45;;;0.88;;
20653;SDS011;21083;50.898;4.902;2022-09-27T10:20:45;5.60;;;1.08;;
20653;SDS011;21083;50.898;4.902;2022-09-27T10:23:16;5.70;;;1.23;;
20653;SDS011;21083;50.898;4.902;2022-09-27T10:25:46;5.55;;;1.25;;
20653;SDS011;21083;50.898;4.902;2022-09-27T10:28:26;4.38;;;1.27;;
20653;SDS011;21083;50.898;4.902;2022-09-27T10:30:57;2.92;;;1.10;;
20653;SDS011;21083;50.898;4.902;2022-09-27T10:33:28;4.13;;;0.90;;
20653;SDS011;21083;50.898;4.902;2022-09-27T10:35:57;5.65;;;1.30;;
20653;SDS011;21083;50.898;4.902;2022-09-27T10:38:25;3.08;;;0.93;;
20653;SDS011;21083;50.898;4.902;2022-09-27T10:40:54;7.32;;;1.13;;
20653;SDS011;21083;50.898;4.902;2022-09-27T10:43:24;4.13;;;1.10;;
20653;SDS011;21083;50.898;4.902;2022-09-27T10:46:01;5.88;;;1.55;;
20653;SDS011;21083;50.898;4.902;2022-09-27T10:48:33;7.15;;;1.23;;
20653;SDS011;21083;50.898;4.902;2022-09-27T10:51:02;5.15;;;1.25;;
20653;SDS011;21083;50.898;4.902;2022-09-27T10:53:30;6.97;;;1.30;;
20653;SDS011;21083;50.898;4.902;2022-09-27T10:55:59;5.53;;;1.25;;
20653;SDS011;21083;50.898;4.902;2022-09-27T10:58:27;13.77;;;1.30;;
20653;SDS011;21083;50.898;4.902;2022-09-27T11:00:57;8.07;;;1.52;;
20653;SDS011;21083;50.898;4.902;2022-09-27T11:03:27;8.43;;;1.60;;
20653;SDS011;21083;50.898;4.902;2022-09-27T11:05:57;7.13;;;1.63;;
20653;SDS011;21083;50.898;4.902;2022-09-27T11:08:28;8.60;;;1.77;;
20653;SDS011;21083;50.898;4.902;2022-09-27T11:11:00;5.45;;;1.30;;
20653;SDS011;21083;50.898;4.902;2022-09-27T11:13:33;10.05;;;1.50;;
20653;SDS011;21083;50.898;4.902;2022-09-27T11:19:15;10.45;;;1.80;;
20653;SDS011;21083;50.898;4.902;2022-09-27T11:22:00;13.30;;;2.53;;
20653;SDS011;21083;50.898;4.902;2022-09-27T11:24:47;10.02;;;2.08;;
20653;SDS011;21083;50.898;4.902;2022-09-27T11:27:28;11.65;;;1.63;;
20653;SDS011;21083;50.898;4.902;2022-09-27T11:30:08;7.38;;;1.83;;
20653;SDS011;21083;50.898;4.902;2022-09-27T11:32:43;8.55;;;1.80;;
20653;SDS011;21083;50.898;4.902;2022-09-27T11:35:25;8.43;;;2.10;;
20653;SDS011;21083;50.898;4.902;2022-09-27T11:38:05;7.88;;;2.28;;
20653;SDS011;21083;50.898;4.902;2022-09-27T11:40:45;15.88;;;2.28;;
20653;SDS011;21083;50.898;4.902;2022-09-27T11:43:31;10.65;;;2.13;;
20653;SDS011;21083;50.898;4.902;2022-09-27T11:46:09;8.30;;;1.80;;
20653;SDS011;21083;50.898;4.902;2022-09-27T11:48:49;7.00;;;2.03;;
20653;SDS011;21083;50.898;4.902;2022-09-27T11:51:33;6.32;;;1.65;;
20653;SDS011;21083;50.898;4.902;2022-09-27T11:54:16;10.93;;;2.13;;
20653;SDS011;21083;50.898;4.902;2022-09-27T11:56:57;7.05;;;1.45;;
20653;SDS011;21083;50.898;4.902;2022-09-27T11:59:33;8.98;;;1.90;;
20653;SDS011;21083;50.898;4.902;2022-09-27T12:02:26;8.02;;;1.48;;
20653;SDS011;21083;50.898;4.902;2022-09-27T12:05:11;5.72;;;1.38;;
20653;SDS011;21083;50.898;4.902;2022-09-27T12:07:47;5.82;;;1.20;;
20653;SDS011;21083;50.898;4.902;2022-09-27T12:10:23;7.30;;;1.30;;
20653;SDS011;21083;50.898;4.902;2022-09-27T12:12:51;5.13;;;1.20;;
20653;SDS011;21083;50.898;4.902;2022-09-27T12:15:21;7.72;;;1.23;;
20653;SDS011;21083;50.898;4.902;2022-09-27T12:17:52;2.13;;;0.75;;
20653;SDS011;21083;50.898;4.902;2022-09-27T12:20:22;3.30;;;0.80;;
20653;SDS011;21083;50.898;4.902;2022-09-27T12:22:55;3.45;;;1.00;;
20653;SDS011;21083;50.898;4.902;2022-09-27T12:25:28;4.15;;;1.10;;
20653;SDS011;21083;50.898;4.902;2022-09-27T12:27:59;7.57;;;1.00;;
20653;SDS011;21083;50.898;4.902;2022-09-27T12:30:30;3.15;;;0.85;;
20653;SDS011;21083;50.898;4.902;2022-09-27T12:33:00;6.78;;;1.25;;
20653;SDS011;21083;50.898;4.902;2022-09-27T12:35:33;6.38;;;1.30;;
20653;SDS011;21083;50.898;4.902;2022-09-27T12:38:09;9.23;;;1.70;;
20653;SDS011;21083;50.898;4.902;2022-09-27T12:40:42;3.85;;;1.30;;
20653;SDS011;21083;50.898;4.902;2022-09-27T12:43:15;7.68;;;1.30;;
20653;SDS011;21083;50.898;4.902;2022-09-27T12:45:46;7.05;;;1.40;;
20653;SDS011;21083;50.898;4.902;2022-09-27T12:48:20;9.05;;;1.27;;
20653;SDS011;21083;50.898;4.902;2022-09-27T12:50:56;6.20;;;1.38;;
20653;SDS011;21083;50.898;4.902;2022-09-27T12:53:34;2.63;;;0.70;;
20653;SDS011;21083;50.898;4.902;2022-09-27T12:56:20;6.13;;;1.13;;
20653;SDS011;21083;50.898;4.902;2022-09-27T13:01:58;7.13;;;1.65;;
20653;SDS011;21083;50.898;4.902;2022-09-27T13:05:00;5.43;;;0.98;;
20653;SDS011;21083;50.898;4.902;2022-09-27T13:07:45;6.97;;;0.98;;
20653;SDS011;21083;50.898;4.902;2022-09-27T13:10:21;8.25;;;1.17;;
20653;SDS011;21083;50.898;4.902;2022-09-27T13:13:02;8.00;;;1.08;;
20653;SDS011;21083;50.898;4.902;2022-09-27T13:15:30;10.55;;;1.85;;
20653;SDS011;21083;50.898;4.902;2022-09-27T13:17:59;1.98;;;0.70;;
20653;SDS011;21083;50.898;4.902;2022-09-27T13:20:39;5.95;;;1.45;;
20653;SDS011;21083;50.898;4.902;2022-09-27T13:26:23;6.10;;;1.00;;
20653;SDS011;21083;50.898;4.902;2022-09-27T13:29:32;5.60;;;1.20;;
20653;SDS011;21083;50.898;4.902;2022-09-27T13:34:48;4.55;;;0.90;;
20653;SDS011;21083;50.898;4.902;2022-09-27T13:40:28;8.55;;;1.13;;
20653;SDS011;21083;50.898;4.902;2022-09-27T13:43:16;5.97;;;1.00;;
20653;SDS011;21083;50.898;4.902;2022-09-27T13:46:03;6.40;;;1.58;;
20653;SDS011;21083;50.898;4.902;2022-09-27T13:48:38;7.53;;;1.23;;
20653;SDS011;21083;50.898;4.902;2022-09-27T13:51:18;5.63;;;1.10;;
20653;SDS011;21083;50.898;4.902;2022-09-27T13:53:56;7.88;;;1.35;;
20653;SDS011;21083;50.898;4.902;2022-09-27T13:59:17;8.57;;;2.25;;
20653;SDS011;21083;50.898;4.902;2022-09-27T14:01:51;6.60;;;1.95;;
20653;SDS011;21083;50.898;4.902;2022-09-27T14:04:21;5.80;;;1.52;;
20653;SDS011;21083;50.898;4.902;2022-09-27T14:06:51;6.85;;;1.63;;
20653;SDS011;21083;50.898;4.902;2022-09-27T14:09:24;8.23;;;1.48;;
20653;SDS011;21083;50.898;4.902;2022-09-27T14:11:55;5.63;;;1.48;;
20653;SDS011;21083;50.898;4.902;2022-09-27T14:14:26;5.38;;;1.35;;
20653;SDS011;21083;50.898;4.902;2022-09-27T14:16:58;8.02;;;2.13;;
20653;SDS011;21083;50.898;4.902;2022-09-27T14:19:26;3.63;;;1.10;;
20653;SDS011;21083;50.898;4.902;2022-09-27T14:21:54;6.25;;;1.35;;
20653;SDS011;21083;50.898;4.902;2022-09-27T14:24:23;7.68;;;1.80;;
20653;SDS011;21083;50.898;4.902;2022-09-27T14:29:47;5.10;;;1.33;;
20653;SDS011;21083;50.898;4.902;2022-09-27T14:32:19;7.22;;;1.23;;
20653;SDS011;21083;50.898;4.902;2022-09-27T14:35:01;5.80;;;1.20;;
20653;SDS011;21083;50.898;4.902;2022-09-27T14:37:29;7.65;;;1.25;;
20653;SDS011;21083;50.898;4.902;2022-09-27T14:39:56;6.32;;;1.35;;
20653;SDS011;21083;50.898;4.902;2022-09-27T14:42:25;7.00;;;1.13;;
20653;SDS011;21083;50.898;4.902;2022-09-27T14:44:58;4.80;;;0.90;;
20653;SDS011;21083;50.898;4.902;2022-09-27T14:47:30;4.70;;;0.93;;
20653;SDS011;21083;50.898;4.902;2022-09-27T14:49:58;4.10;;;0.90;;
20653;SDS011;21083;50.898;4.902;2022-09-27T14:52:28;6.40;;;1.02;;
20653;SDS011;21083;50.898;4.902;2022-09-27T14:54:57;5.53;;;1.00;;
20653;SDS011;21083;50.898;4.902;2022-09-27T14:57:26;9.05;;;1.52;;
20653;SDS011;21083;50.898;4.902;2022-09-27T14:59:58;5.78;;;0.93;;
20653;SDS011;21083;50.898;4.902;2022-09-27T15:02:38;6.30;;;1.10;;
20653;SDS011;21083;50.898;4.902;2022-09-27T15:05:10;8.00;;;1.15;;
20653;SDS011;21083;50.898;4.902;2022-09-27T15:07:39;4.68;;;1.60;;
20653;SDS011;21083;50.898;4.902;2022-09-27T15:10:10;6.35;;;1.63;;
20653;SDS011;21083;50.898;4.902;2022-09-27T15:12:41;10.38;;;1.63;;
20653;SDS011;21083;50.898;4.902;2022-09-27T15:15:12;9.18;;;1.80;;
20653;SDS011;21083;50.898;4.902;2022-09-27T15:17:43;4.72;;;1.33;;
20653;SDS011;21083;50.898;4.902;2022-09-27T15:20:18;10.23;;;1.23;;
20653;SDS011;21083;50.898;4.902;2022-09-27T15:22:48;8.57;;;1.40;;
20653;SDS011;21083;50.898;4.902;2022-09-27T15:25:17;7.80;;;1.30;;
20653;SDS011;21083;50.898;4.902;2022-09-27T15:27:56;6.90;;;1.10;;
20653;SDS011;21083;50.898;4.902;2022-09-27T15:30:26;4.88;;;1.23;;
20653;SDS011;21083;50.898;4.902;2022-09-27T15:32:56;5.93;;;1.30;;
20653;SDS011;21083;50.898;4.902;2022-09-27T15:35:25;8.95;;;1.13;;
20653;SDS011;21083;50.898;4.902;2022-09-27T15:38:10;7.57;;;1.25;;
20653;SDS011;21083;50.898;4.902;2022-09-27T15:40:59;7.57;;;1.52;;